sensor_id;sensor_type;location;lat;lon;timestamp;P1;durP1;ratioP1;P2;durP2;ratioP2
22186;SDS011;11259;52.146;12.844;2023-02-28T00:01:05;1.77;;;1.67;;
22186;SDS011;11259;52.146;12.844;2023-02-28T00:03:30;5.47;;;1.75;;
22186;SDS011;11259;52.146;12.844;2023-02-28T00:05:55;1.13;;;1.00;;
22186;SDS011;11259;52.146;12.844;2023-02-28T00:08:21;3.13;;;1.30;;
22186;SDS011;11259;52.146;12.844;2023-02-28T00:10:46;1.40;;;1.00;;
22186;SDS011;11259;52.146;12.844;2023-02-28T00:13:13;2.67;;;1.55;;
22186;SDS011;11259;52.146;12.844;2023-02-28T00:15:38;1.63;;;0.80;;
22186;SDS011;11259;52.146;12.844;2023-02-28T00:18:03;1.85;;;1.25;;
22186;SDS011;11259;52.146;12.844;2023-02-28T00:20:29;1.90;;;1.17;;
22186;SDS011;11259;52.146;12.844;2023-02-28T00:22:54;1.30;;;1.20;;
22186;SDS011;11259;52.146;12.844;2023-02-28T00:25:21;1.30;;;1.17;;
22186;SDS011;11259;52.146;12.844;2023-02-28T00:27:47;1.38;;;1.10;;
22186;SDS011;11259;52.146;12.844;2023-02-28T00:30:15;1.88;;;1.20;;
22186;SDS011;11259;52.146;12.844;2023-02-28T00:32:42;1.33;;;1.23;;
22186;SDS011;11259;52.146;12.844;2023-02-28T00:35:08;1.10;;;1.00;;
22186;SDS011;11259;52.146;12.844;2023-02-28T00:37:33;1.80;;;1.05;;
22186;SDS011;11259;52.146;12.844;2023-02-28T00:39:59;4.00;;;1.20;;
22186;SDS011;11259;52.146;12.844;2023-02-28T00:42:24;1.83;;;1.10;;
22186;SDS011;11259;52.146;12.844;2023-02-28T00:44:50;3.28;;;1.00;;
22186;SDS011;11259;52.146;12.844;2023-02-28T00:47:16;1.83;;;1.00;;
22186;SDS011;11259;52.146;12.844;2023-02-28T00:49:42;0.98;;;0.98;;
22186;SDS011;11259;52.146;12.844;2023-02-28T00:52:07;2.10;;;1.10;;
22186;SDS011;11259;52.146;12.844;2023-02-28T00:54:33;1.48;;;1.25;;
22186;SDS011;11259;52.146;12.844;2023-02-28T00:56:58;1.25;;;1.10;;
22186;SDS011;11259;52.146;12.844;2023-02-28T00:59:23;1.35;;;1.25;;
22186;SDS011;11259;52.146;12.844;2023-02-28T01:01:49;1.27;;;1.20;;
22186;SDS011;11259;52.146;12.844;2023-02-28T01:04:15;1.45;;;1.25;;
22186;SDS011;11259;52.146;12.844;2023-02-28T01:06:41;1.25;;;1.15;;
22186;SDS011;11259;52.146;12.844;2023-02-28T01:09:06;1.70;;;1.40;;
22186;SDS011;11259;52.146;12.844;2023-02-28T01:11:32;1.38;;;1.25;;
22186;SDS011;11259;52.146;12.844;2023-02-28T01:13:58;1.95;;;1.65;;
22186;SDS011;11259;52.146;12.844;2023-02-28T01:16:23;1.77;;;1.10;;
22186;SDS011;11259;52.146;12.844;2023-02-28T01:18:49;1.77;;;1.15;;
22186;SDS011;11259;52.146;12.844;2023-02-28T01:21:16;2.78;;;1.30;;
22186;SDS011;11259;52.146;12.844;2023-02-28T01:23:43;1.45;;;1.05;;
22186;SDS011;11259;52.146;12.844;2023-02-28T01:26:09;0.80;;;0.80;;
22186;SDS011;11259;52.146;12.844;2023-02-28T01:28:35;1.25;;;1.15;;
22186;SDS011;11259;52.146;12.844;2023-02-28T01:31:01;1.10;;;1.00;;
22186;SDS011;11259;52.146;12.844;2023-02-28T01:33:27;1.33;;;1.05;;
22186;SDS011;11259;52.146;12.844;2023-02-28T01:35:57;2.20;;;1.38;;
22186;SDS011;11259;52.146;12.844;2023-02-28T01:38:24;2.22;;;1.45;;
22186;SDS011;11259;52.146;12.844;2023-02-28T01:40:49;1.60;;;1.10;;
22186;SDS011;11259;52.146;12.844;2023-02-28T01:43:19;4.35;;;1.67;;
22186;SDS011;11259;52.146;12.844;2023-02-28T01:45:46;1.58;;;1.48;;
22186;SDS011;11259;52.146;12.844;2023-02-28T01:48:11;2.13;;;1.00;;
22186;SDS011;11259;52.146;12.844;2023-02-28T01:50:38;2.38;;;1.63;;
22186;SDS011;11259;52.146;12.844;2023-02-28T01:53:06;2.15;;;1.13;;
22186;SDS011;11259;52.146;12.844;2023-02-28T01:55:33;1.33;;;1.05;;
22186;SDS011;11259;52.146;12.844;2023-02-28T01:58:00;1.73;;;1.33;;
22186;SDS011;11259;52.146;12.844;2023-02-28T02:00:28;1.38;;;1.23;;
22186;SDS011;11259;52.146;12.844;2023-02-28T02:02:55;1.67;;;1.30;;
22186;SDS011;11259;52.146;12.844;2023-02-28T02:05:23;1.50;;;1.25;;
22186;SDS011;11259;52.146;12.844;2023-02-28T02:07:50;1.23;;;1.05;;
22186;SDS011;11259;52.146;12.844;2023-02-28T02:10:19;1.48;;;1.23;;
22186;SDS011;11259;52.146;12.844;2023-02-28T02:12:51;1.30;;;1.20;;
22186;SDS011;11259;52.146;12.844;2023-02-28T02:15:22;2.60;;;1.60;;
22186;SDS011;11259;52.146;12.844;2023-02-28T02:17:50;1.63;;;1.10;;
22186;SDS011;11259;52.146;12.844;2023-02-28T02:23:28;2.50;;;1.33;;
22186;SDS011;11259;52.146;12.844;2023-02-28T02:32:01;2.80;;;1.85;;
22186;SDS011;11259;52.146;12.844;2023-02-28T02:34:45;1.65;;;1.27;;
22186;SDS011;11259;52.146;12.844;2023-02-28T02:37:20;1.45;;;1.35;;
22186;SDS011;11259;52.146;12.844;2023-02-28T02:39:53;1.40;;;1.20;;
22186;SDS011;11259;52.146;12.844;2023-02-28T02:42:21;1.58;;;1.38;;
22186;SDS011;11259;52.146;12.844;2023-02-28T02:44:50;1.83;;;1.30;;
22186;SDS011;11259;52.146;12.844;2023-02-28T02:47:20;1.77;;;1.30;;
22186;SDS011;11259;52.146;12.844;2023-02-28T02:49:50;1.88;;;1.42;;
22186;SDS011;11259;52.146;12.844;2023-02-28T02:52:18;2.33;;;1.52;;
22186;SDS011;11259;52.146;12.844;2023-02-28T02:54:47;1.30;;;1.20;;
22186;SDS011;11259;52.146;12.844;2023-02-28T02:57:14;1.60;;;1.50;;
22186;SDS011;11259;52.146;12.844;2023-02-28T02:59:42;2.03;;;1.33;;
22186;SDS011;11259;52.146;12.844;2023-02-28T03:02:11;1.50;;;1.40;;
22186;SDS011;11259;52.146;12.844;2023-02-28T03:04:38;2.97;;;1.38;;
22186;SDS011;11259;52.146;12.844;2023-02-28T03:07:07;1.90;;;1.73;;
22186;SDS011;11259;52.146;12.844;2023-02-28T03:09:33;1.60;;;1.10;;
22186;SDS011;11259;52.146;12.844;2023-02-28T03:11:59;1.20;;;1.10;;
22186;SDS011;11259;52.146;12.844;2023-02-28T03:14:25;1.30;;;1.00;;
22186;SDS011;11259;52.146;12.844;2023-02-28T03:19:45;1.88;;;1.63;;
22186;SDS011;11259;52.146;12.844;2023-02-28T03:25:12;4.00;;;1.85;;
22186;SDS011;11259;52.146;12.844;2023-02-28T03:27:43;1.75;;;1.33;;
22186;SDS011;11259;52.146;12.844;2023-02-28T03:30:19;1.58;;;1.48;;
22186;SDS011;11259;52.146;12.844;2023-02-28T03:32:52;0.98;;;0.98;;
22186;SDS011;11259;52.146;12.844;2023-02-28T03:35:21;3.70;;;1.42;;
22186;SDS011;11259;52.146;12.844;2023-02-28T03:37:50;1.70;;;1.30;;
22186;SDS011;11259;52.146;12.844;2023-02-28T03:40:19;2.03;;;1.80;;
22186;SDS011;11259;52.146;12.844;2023-02-28T03:42:47;1.60;;;1.38;;
22186;SDS011;11259;52.146;12.844;2023-02-28T03:45:14;1.73;;;1.38;;
22186;SDS011;11259;52.146;12.844;2023-02-28T03:47:42;1.45;;;1.35;;
22186;SDS011;11259;52.146;12.844;2023-02-28T03:50:12;1.40;;;1.30;;
22186;SDS011;11259;52.146;12.844;2023-02-28T03:52:42;1.58;;;1.25;;
22186;SDS011;11259;52.146;12.844;2023-02-28T03:55:11;1.08;;;1.08;;
22186;SDS011;11259;52.146;12.844;2023-02-28T03:57:38;1.50;;;1.27;;
22186;SDS011;11259;52.146;12.844;2023-02-28T04:00:05;1.50;;;1.33;;
22186;SDS011;11259;52.146;12.844;2023-02-28T04:02:32;1.60;;;1.50;;
22186;SDS011;11259;52.146;12.844;2023-02-28T04:04:59;1.30;;;1.20;;
22186;SDS011;11259;52.146;12.844;2023-02-28T04:07:24;1.15;;;1.05;;
22186;SDS011;11259;52.146;12.844;2023-02-28T04:09:50;2.08;;;1.08;;
22186;SDS011;11259;52.146;12.844;2023-02-28T04:12:16;2.13;;;1.50;;
22186;SDS011;11259;52.146;12.844;2023-02-28T04:14:42;1.45;;;1.25;;
22186;SDS011;11259;52.146;12.844;2023-02-28T04:17:07;1.30;;;1.20;;
22186;SDS011;11259;52.146;12.844;2023-02-28T04:19:32;1.13;;;1.08;;
22186;SDS011;11259;52.146;12.844;2023-02-28T04:21:58;1.73;;;1.48;;
22186;SDS011;11259;52.146;12.844;2023-02-28T04:24:24;1.55;;;1.20;;
22186;SDS011;11259;52.146;12.844;2023-02-28T04:26:51;1.95;;;1.85;;
22186;SDS011;11259;52.146;12.844;2023-02-28T04:29:20;1.10;;;1.00;;
22186;SDS011;11259;52.146;12.844;2023-02-28T04:31:46;2.92;;;1.63;;
22186;SDS011;11259;52.146;12.844;2023-02-28T04:34:11;2.38;;;1.48;;
22186;SDS011;11259;52.146;12.844;2023-02-28T04:36:36;1.33;;;1.15;;
22186;SDS011;11259;52.146;12.844;2023-02-28T04:39:02;1.58;;;1.48;;
22186;SDS011;11259;52.146;12.844;2023-02-28T04:41:27;1.42;;;1.20;;
22186;SDS011;11259;52.146;12.844;2023-02-28T04:43:53;1.33;;;1.15;;
22186;SDS011;11259;52.146;12.844;2023-02-28T04:46:19;1.17;;;1.13;;
22186;SDS011;11259;52.146;12.844;2023-02-28T04:48:45;4.20;;;1.60;;
22186;SDS011;11259;52.146;12.844;2023-02-28T04:51:11;1.95;;;1.85;;
22186;SDS011;11259;52.146;12.844;2023-02-28T04:53:38;1.60;;;1.50;;
22186;SDS011;11259;52.146;12.844;2023-02-28T04:56:04;1.10;;;1.10;;
22186;SDS011;11259;52.146;12.844;2023-02-28T04:58:30;1.08;;;1.05;;
22186;SDS011;11259;52.146;12.844;2023-02-28T05:01:00;2.42;;;1.52;;
22186;SDS011;11259;52.146;12.844;2023-02-28T05:03:27;1.38;;;1.23;;
22186;SDS011;11259;52.146;12.844;2023-02-28T05:05:53;0.80;;;0.80;;
22186;SDS011;11259;52.146;12.844;2023-02-28T05:08:18;1.13;;;1.08;;
22186;SDS011;11259;52.146;12.844;2023-02-28T05:10:44;1.20;;;1.10;;
22186;SDS011;11259;52.146;12.844;2023-02-28T05:13:09;1.00;;;0.95;;
22186;SDS011;11259;52.146;12.844;2023-02-28T05:15:36;1.50;;;1.23;;
22186;SDS011;11259;52.146;12.844;2023-02-28T05:18:01;0.75;;;0.75;;
22186;SDS011;11259;52.146;12.844;2023-02-28T05:20:28;3.00;;;1.65;;
22186;SDS011;11259;52.146;12.844;2023-02-28T05:22:54;1.33;;;1.23;;
22186;SDS011;11259;52.146;12.844;2023-02-28T05:25:20;1.55;;;1.42;;
22186;SDS011;11259;52.146;12.844;2023-02-28T05:27:46;1.15;;;1.05;;
22186;SDS011;11259;52.146;12.844;2023-02-28T05:30:11;1.52;;;1.42;;
22186;SDS011;11259;52.146;12.844;2023-02-28T05:32:37;1.83;;;1.38;;
22186;SDS011;11259;52.146;12.844;2023-02-28T05:35:03;1.33;;;1.17;;
22186;SDS011;11259;52.146;12.844;2023-02-28T05:37:30;1.10;;;1.00;;
22186;SDS011;11259;52.146;12.844;2023-02-28T05:39:55;1.63;;;1.13;;
22186;SDS011;11259;52.146;12.844;2023-02-28T05:42:21;1.45;;;1.35;;
22186;SDS011;11259;52.146;12.844;2023-02-28T05:44:46;1.45;;;1.35;;
22186;SDS011;11259;52.146;12.844;2023-02-28T05:47:11;1.42;;;1.33;;
22186;SDS011;11259;52.146;12.844;2023-02-28T05:49:37;2.95;;;1.42;;
22186;SDS011;11259;52.146;12.844;2023-02-28T05:52:02;3.08;;;1.50;;
22186;SDS011;11259;52.146;12.844;2023-02-28T05:54:29;1.52;;;1.42;;
22186;SDS011;11259;52.146;12.844;2023-02-28T05:56:54;1.55;;;1.45;;
22186;SDS011;11259;52.146;12.844;2023-02-28T05:59:20;1.30;;;1.30;;
22186;SDS011;11259;52.146;12.844;2023-02-28T06:01:45;1.48;;;1.15;;
22186;SDS011;11259;52.146;12.844;2023-02-28T06:04:11;1.30;;;1.20;;
22186;SDS011;11259;52.146;12.844;2023-02-28T06:06:36;1.38;;;1.05;;
22186;SDS011;11259;52.146;12.844;2023-02-28T06:09:02;0.85;;;0.85;;
22186;SDS011;11259;52.146;12.844;2023-02-28T06:11:29;29.35;;;11.80;;
22186;SDS011;11259;52.146;12.844;2023-02-28T06:13:54;51.42;;;22.30;;
22186;SDS011;11259;52.146;12.844;2023-02-28T06:16:21;31.45;;;14.73;;
22186;SDS011;11259;52.146;12.844;2023-02-28T06:18:46;18.15;;;9.18;;
22186;SDS011;11259;52.146;12.844;2023-02-28T06:21:12;7.55;;;5.47;;
22186;SDS011;11259;52.146;12.844;2023-02-28T06:23:37;12.05;;;4.90;;
22186;SDS011;11259;52.146;12.844;2023-02-28T06:26:03;3.92;;;2.67;;
22186;SDS011;11259;52.146;12.844;2023-02-28T06:28:30;2.50;;;1.92;;
22186;SDS011;11259;52.146;12.844;2023-02-28T06:30:55;3.00;;;2.70;;
22186;SDS011;11259;52.146;12.844;2023-02-28T06:33:20;1.80;;;1.70;;
22186;SDS011;11259;52.146;12.844;2023-02-28T06:35:46;1.88;;;1.58;;
22186;SDS011;11259;52.146;12.844;2023-02-28T06:38:11;1.70;;;1.30;;
22186;SDS011;11259;52.146;12.844;2023-02-28T06:40:37;1.55;;;1.45;;
22186;SDS011;11259;52.146;12.844;2023-02-28T06:43:02;1.70;;;1.60;;
22186;SDS011;11259;52.146;12.844;2023-02-28T06:45:29;1.00;;;1.00;;
22186;SDS011;11259;52.146;12.844;2023-02-28T06:47:54;3.60;;;1.35;;
22186;SDS011;11259;52.146;12.844;2023-02-28T06:50:20;2.13;;;1.80;;
22186;SDS011;11259;52.146;12.844;2023-02-28T06:52:45;1.00;;;1.00;;
22186;SDS011;11259;52.146;12.844;2023-02-28T06:55:10;1.58;;;1.30;;
22186;SDS011;11259;52.146;12.844;2023-02-28T06:57:36;1.42;;;1.33;;
22186;SDS011;11259;52.146;12.844;2023-02-28T07:00:03;1.70;;;1.60;;
22186;SDS011;11259;52.146;12.844;2023-02-28T07:02:31;0.98;;;0.98;;
22186;SDS011;11259;52.146;12.844;2023-02-28T07:04:56;1.85;;;1.73;;
22186;SDS011;11259;52.146;12.844;2023-02-28T07:07:22;2.05;;;1.50;;
22186;SDS011;11259;52.146;12.844;2023-02-28T07:09:47;2.13;;;1.85;;
22186;SDS011;11259;52.146;12.844;2023-02-28T07:12:12;5.13;;;2.22;;
22186;SDS011;11259;52.146;12.844;2023-02-28T07:14:38;4.78;;;2.63;;
22186;SDS011;11259;52.146;12.844;2023-02-28T07:17:03;7.90;;;3.20;;
22186;SDS011;11259;52.146;12.844;2023-02-28T07:19:30;5.57;;;3.90;;
22186;SDS011;11259;52.146;12.844;2023-02-28T07:21:55;10.57;;;4.85;;
22186;SDS011;11259;52.146;12.844;2023-02-28T07:24:20;6.88;;;3.40;;
22186;SDS011;11259;52.146;12.844;2023-02-28T07:26:46;3.90;;;2.67;;
22186;SDS011;11259;52.146;12.844;2023-02-28T07:29:11;3.95;;;2.30;;
22186;SDS011;11259;52.146;12.844;2023-02-28T07:31:36;4.03;;;3.20;;
22186;SDS011;11259;52.146;12.844;2023-02-28T07:34:02;4.97;;;2.85;;
22186;SDS011;11259;52.146;12.844;2023-02-28T07:36:28;5.60;;;2.47;;
22186;SDS011;11259;52.146;12.844;2023-02-28T07:38:54;3.60;;;2.80;;
22186;SDS011;11259;52.146;12.844;2023-02-28T07:41:20;3.85;;;2.83;;
22186;SDS011;11259;52.146;12.844;2023-02-28T07:43:46;4.97;;;2.70;;
22186;SDS011;11259;52.146;12.844;2023-02-28T07:46:13;2.97;;;2.30;;
22186;SDS011;11259;52.146;12.844;2023-02-28T07:48:39;3.55;;;2.60;;
22186;SDS011;11259;52.146;12.844;2023-02-28T07:51:04;2.17;;;1.95;;
22186;SDS011;11259;52.146;12.844;2023-02-28T07:53:31;5.18;;;2.28;;
22186;SDS011;11259;52.146;12.844;2023-02-28T07:55:57;2.63;;;2.33;;
22186;SDS011;11259;52.146;12.844;2023-02-28T07:58:24;3.25;;;2.58;;
22186;SDS011;11259;52.146;12.844;2023-02-28T08:00:49;2.17;;;1.98;;
22186;SDS011;11259;52.146;12.844;2023-02-28T08:03:15;5.07;;;2.28;;
22186;SDS011;11259;52.146;12.844;2023-02-28T08:05:40;2.72;;;1.98;;
22186;SDS011;11259;52.146;12.844;2023-02-28T08:08:06;2.45;;;2.15;;
22186;SDS011;11259;52.146;12.844;2023-02-28T08:10:32;1.90;;;1.60;;
22186;SDS011;11259;52.146;12.844;2023-02-28T08:12:58;2.33;;;1.50;;
22186;SDS011;11259;52.146;12.844;2023-02-28T08:15:23;2.17;;;1.98;;
22186;SDS011;11259;52.146;12.844;2023-02-28T08:17:49;1.90;;;1.77;;
22186;SDS011;11259;52.146;12.844;2023-02-28T08:20:14;2.17;;;1.58;;
22186;SDS011;11259;52.146;12.844;2023-02-28T08:22:39;4.03;;;3.22;;
22186;SDS011;11259;52.146;12.844;2023-02-28T08:25:05;3.13;;;1.50;;
22186;SDS011;11259;52.146;12.844;2023-02-28T08:27:35;2.47;;;2.28;;
22186;SDS011;11259;52.146;12.844;2023-02-28T08:30:00;2.80;;;1.83;;
22186;SDS011;11259;52.146;12.844;2023-02-28T08:32:26;2.22;;;1.30;;
22186;SDS011;11259;52.146;12.844;2023-02-28T08:34:51;1.92;;;1.75;;
22186;SDS011;11259;52.146;12.844;2023-02-28T08:37:16;2.10;;;1.90;;
22186;SDS011;11259;52.146;12.844;2023-02-28T08:39:42;2.03;;;1.52;;
22186;SDS011;11259;52.146;12.844;2023-02-28T08:42:07;3.17;;;1.95;;
22186;SDS011;11259;52.146;12.844;2023-02-28T08:44:34;4.75;;;1.63;;
22186;SDS011;11259;52.146;12.844;2023-02-28T08:46:59;1.70;;;1.42;;
22186;SDS011;11259;52.146;12.844;2023-02-28T08:49:25;2.15;;;1.50;;
22186;SDS011;11259;52.146;12.844;2023-02-28T08:51:50;4.03;;;2.05;;
22186;SDS011;11259;52.146;12.844;2023-02-28T08:54:16;1.42;;;1.30;;
22186;SDS011;11259;52.146;12.844;2023-02-28T08:56:41;1.60;;;1.50;;
22186;SDS011;11259;52.146;12.844;2023-02-28T08:59:08;2.67;;;1.83;;
22186;SDS011;11259;52.146;12.844;2023-02-28T09:01:35;1.92;;;1.70;;
22186;SDS011;11259;52.146;12.844;2023-02-28T09:04:00;3.92;;;2.22;;
22186;SDS011;11259;52.146;12.844;2023-02-28T09:06:26;1.40;;;1.30;;
22186;SDS011;11259;52.146;12.844;2023-02-28T09:08:51;1.95;;;1.55;;
22186;SDS011;11259;52.146;12.844;2023-02-28T09:11:17;2.10;;;1.63;;
22186;SDS011;11259;52.146;12.844;2023-02-28T09:13:42;1.73;;;1.60;;
22186;SDS011;11259;52.146;12.844;2023-02-28T09:16:09;2.65;;;1.48;;
22186;SDS011;11259;52.146;12.844;2023-02-28T09:18:37;1.50;;;1.40;;
22186;SDS011;11259;52.146;12.844;2023-02-28T09:21:03;2.25;;;1.77;;
22186;SDS011;11259;52.146;12.844;2023-02-28T09:23:29;13.57;;;5.13;;
22186;SDS011;11259;52.146;12.844;2023-02-28T09:25:54;29.02;;;10.73;;
22186;SDS011;11259;52.146;12.844;2023-02-28T09:28:20;33.90;;;11.65;;
22186;SDS011;11259;52.146;12.844;2023-02-28T09:30:47;15.13;;;7.65;;
22186;SDS011;11259;52.146;12.844;2023-02-28T09:33:13;8.38;;;2.95;;
22186;SDS011;11259;52.146;12.844;2023-02-28T09:35:41;3.85;;;2.60;;
22186;SDS011;11259;52.146;12.844;2023-02-28T09:38:06;3.53;;;2.72;;
22186;SDS011;11259;52.146;12.844;2023-02-28T09:40:32;1.92;;;1.75;;
22186;SDS011;11259;52.146;12.844;2023-02-28T09:43:00;3.63;;;1.27;;
22186;SDS011;11259;52.146;12.844;2023-02-28T09:45:26;2.00;;;1.58;;
22186;SDS011;11259;52.146;12.844;2023-02-28T09:47:55;2.55;;;2.05;;
22186;SDS011;11259;52.146;12.844;2023-02-28T09:50:23;1.75;;;1.45;;
22186;SDS011;11259;52.146;12.844;2023-02-28T09:52:56;2.28;;;1.48;;
22186;SDS011;11259;52.146;12.844;2023-02-28T09:55:22;2.05;;;1.33;;
22186;SDS011;11259;52.146;12.844;2023-02-28T09:57:53;3.97;;;1.55;;
22186;SDS011;11259;52.146;12.844;2023-02-28T10:00:20;1.90;;;1.42;;
22186;SDS011;11259;52.146;12.844;2023-02-28T10:02:50;1.58;;;1.40;;
22186;SDS011;11259;52.146;12.844;2023-02-28T10:05:26;2.53;;;1.60;;
22186;SDS011;11259;52.146;12.844;2023-02-28T10:08:00;2.25;;;1.25;;
22186;SDS011;11259;52.146;12.844;2023-02-28T10:10:28;2.17;;;1.40;;
22186;SDS011;11259;52.146;12.844;2023-02-28T10:12:55;1.00;;;0.90;;
22186;SDS011;11259;52.146;12.844;2023-02-28T10:15:23;0.90;;;0.90;;
22186;SDS011;11259;52.146;12.844;2023-02-28T10:17:49;2.15;;;1.13;;
22186;SDS011;11259;52.146;12.844;2023-02-28T10:20:19;2.42;;;1.45;;
22186;SDS011;11259;52.146;12.844;2023-02-28T10:22:50;1.02;;;0.90;;
22186;SDS011;11259;52.146;12.844;2023-02-28T10:25:20;2.00;;;0.93;;
22186;SDS011;11259;52.146;12.844;2023-02-28T10:27:46;2.35;;;1.23;;
22186;SDS011;11259;52.146;12.844;2023-02-28T10:30:12;2.10;;;1.77;;
22186;SDS011;11259;52.146;12.844;2023-02-28T10:32:38;1.90;;;1.45;;
22186;SDS011;11259;52.146;12.844;2023-02-28T10:35:09;1.25;;;1.15;;
22186;SDS011;11259;52.146;12.844;2023-02-28T10:37:39;1.45;;;1.35;;
22186;SDS011;11259;52.146;12.844;2023-02-28T10:40:05;1.13;;;0.90;;
22186;SDS011;11259;52.146;12.844;2023-02-28T10:42:32;1.95;;;1.33;;
22186;SDS011;11259;52.146;12.844;2023-02-28T10:45:10;1.40;;;1.30;;
22186;SDS011;11259;52.146;12.844;2023-02-28T10:47:38;1.70;;;1.50;;
22186;SDS011;11259;52.146;12.844;2023-02-28T10:50:26;1.20;;;1.10;;
22186;SDS011;11259;52.146;12.844;2023-02-28T10:52:53;1.40;;;1.23;;
22186;SDS011;11259;52.146;12.844;2023-02-28T10:55:20;1.33;;;1.17;;
22186;SDS011;11259;52.146;12.844;2023-02-28T10:57:49;14.27;;;4.68;;
22186;SDS011;11259;52.146;12.844;2023-02-28T11:00:15;14.00;;;3.75;;
22186;SDS011;11259;52.146;12.844;2023-02-28T11:02:43;4.07;;;2.33;;
22186;SDS011;11259;52.146;12.844;2023-02-28T11:05:22;2.45;;;1.23;;
22186;SDS011;11259;52.146;12.844;2023-02-28T11:07:51;1.17;;;1.08;;
22186;SDS011;11259;52.146;12.844;2023-02-28T11:10:17;0.77;;;0.77;;
22186;SDS011;11259;52.146;12.844;2023-02-28T11:12:44;1.02;;;0.95;;
22186;SDS011;11259;52.146;12.844;2023-02-28T11:15:21;5.13;;;0.95;;
22186;SDS011;11259;52.146;12.844;2023-02-28T11:17:52;0.90;;;0.90;;
22186;SDS011;11259;52.146;12.844;2023-02-28T11:20:20;1.40;;;1.27;;
22186;SDS011;11259;52.146;12.844;2023-02-28T11:22:46;0.93;;;0.93;;
22186;SDS011;11259;52.146;12.844;2023-02-28T11:25:16;0.88;;;0.88;;
22186;SDS011;11259;52.146;12.844;2023-02-28T11:27:47;1.15;;;1.02;;
22186;SDS011;11259;52.146;12.844;2023-02-28T11:30:25;1.55;;;1.33;;
22186;SDS011;11259;52.146;12.844;2023-02-28T11:32:56;2.28;;;0.95;;
22186;SDS011;11259;52.146;12.844;2023-02-28T11:35:23;2.67;;;1.10;;
22186;SDS011;11259;52.146;12.844;2023-02-28T11:37:51;1.30;;;1.17;;
22186;SDS011;11259;52.146;12.844;2023-02-28T11:40:18;1.85;;;1.20;;
22186;SDS011;11259;52.146;12.844;2023-02-28T11:42:47;1.25;;;1.15;;
22186;SDS011;11259;52.146;12.844;2023-02-28T11:45:20;1.15;;;1.05;;
22186;SDS011;11259;52.146;12.844;2023-02-28T11:47:52;1.00;;;0.88;;
22186;SDS011;11259;52.146;12.844;2023-02-28T11:50:36;1.77;;;1.35;;
22186;SDS011;11259;52.146;12.844;2023-02-28T11:53:05;1.58;;;1.17;;
22186;SDS011;11259;52.146;12.844;2023-02-28T11:55:38;1.23;;;1.17;;
22186;SDS011;11259;52.146;12.844;2023-02-28T12:01:04;2.58;;;1.40;;
22186;SDS011;11259;52.146;12.844;2023-02-28T12:03:38;1.17;;;0.93;;
22186;SDS011;11259;52.146;12.844;2023-02-28T12:06:12;1.63;;;1.38;;
22186;SDS011;11259;52.146;12.844;2023-02-28T12:08:44;1.50;;;0.95;;
22186;SDS011;11259;52.146;12.844;2023-02-28T12:11:16;1.10;;;1.02;;
22186;SDS011;11259;52.146;12.844;2023-02-28T12:13:50;1.75;;;1.25;;
22186;SDS011;11259;52.146;12.844;2023-02-28T12:16:37;1.30;;;1.20;;
22186;SDS011;11259;52.146;12.844;2023-02-28T12:19:20;1.88;;;1.33;;
22186;SDS011;11259;52.146;12.844;2023-02-28T12:21:49;1.15;;;1.10;;
22186;SDS011;11259;52.146;12.844;2023-02-28T12:24:39;1.50;;;1.20;;
22186;SDS011;11259;52.146;12.844;2023-02-28T12:27:13;2.53;;;1.05;;
22186;SDS011;11259;52.146;12.844;2023-02-28T12:29:43;1.50;;;1.13;;
22186;SDS011;11259;52.146;12.844;2023-02-28T12:32:12;1.27;;;1.10;;
22186;SDS011;11259;52.146;12.844;2023-02-28T12:34:41;1.20;;;1.10;;
22186;SDS011;11259;52.146;12.844;2023-02-28T12:37:09;1.15;;;1.10;;
22186;SDS011;11259;52.146;12.844;2023-02-28T12:39:38;1.90;;;1.05;;
22186;SDS011;11259;52.146;12.844;2023-02-28T12:42:09;1.48;;;1.10;;
22186;SDS011;11259;52.146;12.844;2023-02-28T12:44:37;1.33;;;1.23;;
22186;SDS011;11259;52.146;12.844;2023-02-28T12:47:09;2.03;;;1.20;;
22186;SDS011;11259;52.146;12.844;2023-02-28T12:49:53;1.55;;;1.40;;
22186;SDS011;11259;52.146;12.844;2023-02-28T12:52:23;0.93;;;0.93;;
22186;SDS011;11259;52.146;12.844;2023-02-28T12:54:53;1.55;;;1.20;;
22186;SDS011;11259;52.146;12.844;2023-02-28T12:57:25;1.30;;;1.20;;
22186;SDS011;11259;52.146;12.844;2023-02-28T12:59:56;1.67;;;1.30;;
22186;SDS011;11259;52.146;12.844;2023-02-28T13:05:22;1.23;;;1.00;;
22186;SDS011;11259;52.146;12.844;2023-02-28T13:10:45;1.20;;;1.08;;
22186;SDS011;11259;52.146;12.844;2023-02-28T13:13:15;1.17;;;1.10;;
22186;SDS011;11259;52.146;12.844;2023-02-28T13:15:42;1.95;;;1.08;;
22186;SDS011;11259;52.146;12.844;2023-02-28T13:18:27;1.17;;;1.08;;
22186;SDS011;11259;52.146;12.844;2023-02-28T13:20:56;1.50;;;1.40;;
22186;SDS011;11259;52.146;12.844;2023-02-28T13:23:38;2.50;;;1.65;;
22186;SDS011;11259;52.146;12.844;2023-02-28T13:26:05;1.38;;;1.27;;
22186;SDS011;11259;52.146;12.844;2023-02-28T13:31:24;2.17;;;1.42;;
22186;SDS011;11259;52.146;12.844;2023-02-28T13:34:11;2.10;;;1.20;;
22186;SDS011;11259;52.146;12.844;2023-02-28T13:36:39;3.05;;;1.80;;
22186;SDS011;11259;52.146;12.844;2023-02-28T13:39:44;1.13;;;0.93;;
22186;SDS011;11259;52.146;12.844;2023-02-28T13:42:30;1.42;;;1.17;;
22186;SDS011;11259;52.146;12.844;2023-02-28T13:47:45;1.50;;;1.40;;
22186;SDS011;11259;52.146;12.844;2023-02-28T13:50:24;1.13;;;1.00;;
22186;SDS011;11259;52.146;12.844;2023-02-28T13:53:04;2.38;;;1.10;;
22186;SDS011;11259;52.146;12.844;2023-02-28T13:55:48;2.45;;;0.95;;
22186;SDS011;11259;52.146;12.844;2023-02-28T13:58:21;1.58;;;1.20;;
22186;SDS011;11259;52.146;12.844;2023-02-28T14:00:59;1.42;;;1.10;;
22186;SDS011;11259;52.146;12.844;2023-02-28T14:03:36;3.15;;;1.33;;
22186;SDS011;11259;52.146;12.844;2023-02-28T14:06:14;1.33;;;1.00;;
22186;SDS011;11259;52.146;12.844;2023-02-28T14:08:46;3.20;;;1.05;;
22186;SDS011;11259;52.146;12.844;2023-02-28T14:11:23;1.17;;;1.02;;
22186;SDS011;11259;52.146;12.844;2023-02-28T14:13:51;1.55;;;1.00;;
22186;SDS011;11259;52.146;12.844;2023-02-28T14:16:17;1.08;;;0.95;;
22186;SDS011;11259;52.146;12.844;2023-02-28T14:18:47;1.55;;;1.20;;
22186;SDS011;11259;52.146;12.844;2023-02-28T14:21:16;1.27;;;0.93;;
22186;SDS011;11259;52.146;12.844;2023-02-28T14:23:50;1.70;;;1.10;;
22186;SDS011;11259;52.146;12.844;2023-02-28T14:26:55;1.10;;;1.00;;
22186;SDS011;11259;52.146;12.844;2023-02-28T14:29:29;2.85;;;1.55;;
22186;SDS011;11259;52.146;12.844;2023-02-28T14:32:01;0.95;;;0.88;;
22186;SDS011;11259;52.146;12.844;2023-02-28T14:34:35;1.85;;;1.02;;
22186;SDS011;11259;52.146;12.844;2023-02-28T14:37:04;1.25;;;1.05;;
22186;SDS011;11259;52.146;12.844;2023-02-28T14:39:31;1.38;;;1.27;;
22186;SDS011;11259;52.146;12.844;2023-02-28T14:41:57;1.25;;;1.15;;
22186;SDS011;11259;52.146;12.844;2023-02-28T14:44:23;1.17;;;0.98;;
22186;SDS011;11259;52.146;12.844;2023-02-28T14:46:50;0.85;;;0.85;;
22186;SDS011;11259;52.146;12.844;2023-02-28T14:49:18;2.72;;;1.13;;
22186;SDS011;11259;52.146;12.844;2023-02-28T14:51:44;9.77;;;3.58;;
22186;SDS011;11259;52.146;12.844;2023-02-28T14:54:12;2.92;;;1.67;;
22186;SDS011;11259;52.146;12.844;2023-02-28T14:56:40;2.85;;;1.30;;
22186;SDS011;11259;52.146;12.844;2023-02-28T14:59:06;1.30;;;1.02;;
22186;SDS011;11259;52.146;12.844;2023-02-28T15:01:48;1.10;;;1.00;;
22186;SDS011;11259;52.146;12.844;2023-02-28T15:04:18;2.08;;;1.40;;
22186;SDS011;11259;52.146;12.844;2023-02-28T15:06:46;1.65;;;1.20;;
22186;SDS011;11259;52.146;12.844;2023-02-28T15:09:14;1.13;;;1.02;;